createdAt,value
2018-07-24T00:00:14.843Z,65.95
2018-07-24T00:01:14.871Z,65.37
2018-07-24T00:03:07.810Z,66.33
2018-07-24T00:04:07.816Z,66.33
2018-07-24T00:06:00.732Z,66.14
2018-07-24T00:07:00.762Z,66.33
2018-07-24T00:08:53.705Z,66.43
2018-07-24T00:09:53.706Z,66.05
2018-07-24T00:11:46.632Z,66.20
2018-07-24T00:12:46.756Z,66.49
2018-07-24T00:14:39.595Z,66.97
2018-07-24T00:15:39.601Z,66.97
2018-07-24T00:17:32.515Z,67.07
2018-07-24T00:18:32.546Z,67.27
2018-07-24T00:20:25.478Z,67.17
2018-07-24T00:21:25.491Z,67.07
2018-07-24T00:23:18.420Z,67.36
2018-07-24T00:24:18.425Z,67.07
2018-07-24T00:26:11.410Z,67.36
2018-07-24T00:27:11.391Z,67.23
2018-07-24T00:29:04.329Z,67.36
2018-07-24T00:30:04.333Z,67.52
2018-07-24T00:31:57.258Z,67.52
2018-07-24T00:32:57.276Z,67.75
2018-07-24T00:34:50.213Z,67.62
2018-07-24T00:35:50.221Z,67.43
2018-07-24T00:37:43.136Z,67.91
2018-07-24T00:38:43.167Z,67.81
2018-07-24T00:40:36.102Z,67.71
2018-07-24T00:41:36.109Z,67.81
2018-07-24T00:43:29.043Z,67.62
2018-07-24T00:44:29.047Z,68.01
2018-07-24T00:46:21.968Z,67.81
2018-07-24T00:47:21.997Z,68.10
2018-07-24T00:49:14.929Z,68.29
2018-07-24T00:50:14.934Z,68.10
2018-07-24T00:52:07.851Z,67.91
2018-07-24T00:53:07.875Z,67.81
2018-07-24T00:55:00.813Z,68.77
2018-07-24T00:56:00.816Z,68.49
2018-07-24T00:57:53.738Z,68.59
2018-07-24T00:58:53.767Z,68.45
2018-07-24T01:00:46.699Z,68.93
2018-07-24T01:01:46.708Z,69.90
2018-07-24T01:03:39.620Z,69.61
2018-07-24T01:04:39.644Z,69.71
2018-07-24T01:06:32.579Z,69.80
2018-07-24T01:07:32.582Z,70.09
2018-07-24T01:09:25.521Z,70.38
2018-07-24T01:10:25.530Z,70.19
2018-07-24T01:12:18.447Z,70.76
2018-07-24T01:13:18.471Z,70.86
2018-07-24T01:15:11.404Z,71.06
2018-07-24T01:16:11.414Z,70.86
2018-07-24T01:18:04.325Z,70.76
2018-07-24T01:19:04.356Z,70.57
2018-07-24T01:20:57.332Z,70.38
2018-07-24T01:21:57.296Z,70.57
2018-07-24T01:23:50.206Z,70.54
2018-07-24T01:24:50.237Z,70.64
2018-07-24T01:26:43.169Z,70.83
2018-07-24T01:27:43.173Z,70.57
2018-07-24T01:29:36.089Z,70.67
2018-07-24T01:30:36.120Z,70.54
2018-07-24T01:32:29.053Z,70.73
2018-07-24T01:33:29.061Z,71.22
2018-07-24T01:35:21.994Z,71.89
2018-07-24T01:36:22.002Z,71.60
2018-07-24T01:38:14.915Z,71.70
2018-07-24T01:39:14.947Z,71.60
2018-07-24T01:41:07.876Z,72.08
2018-07-24T01:42:07.886Z,71.70
2018-07-24T01:44:00.796Z,71.79
2018-07-24T01:45:00.819Z,72.08
2018-07-24T01:46:53.757Z,71.79
2018-07-24T01:47:53.767Z,71.70
2018-07-24T01:49:46.677Z,71.76
2018-07-24T01:50:46.700Z,72.37
2018-07-24T01:52:40.636Z,72.37
2018-07-24T01:53:40.638Z,71.76
2018-07-24T01:55:33.591Z,72.24
2018-07-24T01:56:33.578Z,72.27
2018-07-24T01:58:26.492Z,72.18
2018-07-24T01:59:26.516Z,71.89
2018-07-24T02:01:19.452Z,72.53
2018-07-24T02:02:19.455Z,72.63
2018-07-24T02:04:12.371Z,72.63
2018-07-24T02:05:12.396Z,72.43
2018-07-24T02:07:05.332Z,72.63
2018-07-24T02:08:05.335Z,72.81
2018-07-24T02:09:58.745Z,72.91
2018-07-24T02:10:58.772Z,73.01
2018-07-24T02:12:51.750Z,73.58
2018-07-24T02:13:51.710Z,73.10
2018-07-24T02:15:44.620Z,73.10
2018-07-24T02:16:44.647Z,73.49
2018-07-24T02:18:37.579Z,73.39
2018-07-24T02:19:37.583Z,73.68
2018-07-24T02:21:30.519Z,73.49
2018-07-24T02:22:30.523Z,73.58
2018-07-24T02:24:23.440Z,73.10
2018-07-24T02:25:23.462Z,73.49
2018-07-24T02:27:16.401Z,73.01
2018-07-24T02:28:16.409Z,73.16
2018-07-24T02:30:09.323Z,73.49
2018-07-24T02:31:09.344Z,73.07
2018-07-24T02:33:02.347Z,73.55
2018-07-24T02:34:02.287Z,73.46
2018-07-24T02:35:55.204Z,73.94
2018-07-24T02:36:55.230Z,73.65
2018-07-24T02:38:48.161Z,73.84
2018-07-24T02:39:48.164Z,73.65
2018-07-24T02:41:41.105Z,73.46
2018-07-24T02:42:41.102Z,73.55
2018-07-24T02:44:34.030Z,73.94
2018-07-24T02:45:34.050Z,73.55
2018-07-24T02:47:26.987Z,73.74
2018-07-24T02:48:26.989Z,73.46
2018-07-24T02:50:19.911Z,73.94
2018-07-24T02:51:19.934Z,73.94
2018-07-24T02:53:12.881Z,73.55
2018-07-24T02:54:12.880Z,73.65
2018-07-24T02:56:05.840Z,73.74
2018-07-24T02:57:05.820Z,73.84
2018-07-24T02:58:58.766Z,73.84
2018-07-24T02:59:58.759Z,73.65
2018-07-24T03:01:51.697Z,73.65
2018-07-24T03:02:51.697Z,73.84
2018-07-24T03:04:44.636Z,73.36
2018-07-24T03:05:44.638Z,73.65
2018-07-24T03:07:37.573Z,73.65
2018-07-24T03:08:37.580Z,73.94
2018-07-24T03:10:30.490Z,74.13
2018-07-24T03:11:30.516Z,73.99
2018-07-24T03:13:23.451Z,73.80
2018-07-24T03:14:23.461Z,74.19
2018-07-24T03:16:16.446Z,74.09
2018-07-24T03:17:16.392Z,73.90
2018-07-24T03:19:09.325Z,74.67
2018-07-24T03:20:09.330Z,74.48
2018-07-24T03:22:02.247Z,74.67
2018-07-24T03:23:02.268Z,74.57
2018-07-24T03:24:55.206Z,74.86
2018-07-24T03:25:55.215Z,74.86
2018-07-24T03:27:48.129Z,75.54
2018-07-24T03:28:48.150Z,75.54
2018-07-24T03:30:41.084Z,75.24
2018-07-24T03:31:41.088Z,75.24
2018-07-24T03:33:34.025Z,75.63
2018-07-24T03:34:34.033Z,75.54
2018-07-24T03:36:26.942Z,74.67
2018-07-24T03:37:26.967Z,74.86
2018-07-24T03:39:19.899Z,74.57
2018-07-24T03:40:19.903Z,74.38
2018-07-24T03:42:12.820Z,74.48
2018-07-24T03:43:12.842Z,74.57
2018-07-24T03:45:05.825Z,74.57
2018-07-24T03:46:05.782Z,74.29
2018-07-24T03:47:58.738Z,74.76
2018-07-24T03:48:58.727Z,73.99
2018-07-24T03:50:51.657Z,73.99
2018-07-24T03:51:51.661Z,73.80
2018-07-24T03:53:44.601Z,74.09
2018-07-24T03:54:44.607Z,73.80
2018-07-24T03:56:37.600Z,74.48
2018-07-24T03:57:37.539Z,74.19
2018-07-24T03:59:30.474Z,74.22
2018-07-24T04:00:30.476Z,74.41
2018-07-24T04:02:24.421Z,74.07
2018-07-24T04:03:24.414Z,73.68
2018-07-24T04:05:17.348Z,72.53
2018-07-24T04:06:17.353Z,72.47
2018-07-24T04:08:10.308Z,71.64
2018-07-24T04:09:10.311Z,70.67
2018-07-24T04:11:03.262Z,69.03
2018-07-24T04:12:03.232Z,68.77
2018-07-24T04:13:56.153Z,68.39
2018-07-24T04:14:56.175Z,67.46
2018-07-24T04:16:49.110Z,66.59
2018-07-24T04:17:49.119Z,65.95
2018-07-24T04:19:42.037Z,64.72
2018-07-24T04:20:42.054Z,64.56
2018-07-24T04:22:35.115Z,62.05
2018-07-24T04:23:35.115Z,62.08
2018-07-24T04:25:28.070Z,61.30
2018-07-24T04:26:28.063Z,60.57
2018-07-24T04:28:20.977Z,60.27
2018-07-24T04:29:21.006Z,59.89
2018-07-24T04:31:13.974Z,59.63
2018-07-24T04:32:13.951Z,58.59
2018-07-24T04:34:06.869Z,58.30
2018-07-24T04:35:06.895Z,57.07
2018-07-24T04:36:59.843Z,56.20
2018-07-24T04:37:59.843Z,55.64
2018-07-24T04:39:52.787Z,54.60
2018-07-24T04:40:52.797Z,54.02
2018-07-24T04:42:45.739Z,54.38
2018-07-24T04:43:45.745Z,54.19
2018-07-24T04:45:38.678Z,53.73
2018-07-24T04:46:38.709Z,53.63
2018-07-24T04:48:31.690Z,53.85
2018-07-24T04:49:31.664Z,53.30
2018-07-24T04:51:24.641Z,51.87
2018-07-24T04:52:24.615Z,51.48
2018-07-24T04:54:17.540Z,50.53
2018-07-24T04:55:17.567Z,49.95
2018-07-24T04:57:10.514Z,49.58
2018-07-24T04:58:10.521Z,49.29
2018-07-24T05:00:03.447Z,48.61
2018-07-24T05:01:03.476Z,48.54
2018-07-24T05:02:56.426Z,49.12
2018-07-24T05:03:56.430Z,48.07
2018-07-24T05:05:49.360Z,46.83
2018-07-24T05:06:49.396Z,46.54
2018-07-24T05:08:42.494Z,45.88
2018-07-24T05:09:42.570Z,46.10
2018-07-24T05:11:35.436Z,45.22
2018-07-24T05:12:35.462Z,45.22
2018-07-24T05:14:28.417Z,44.56
2018-07-24T05:15:28.418Z,44.76
2018-07-24T05:17:21.364Z,44.07
2018-07-24T05:18:21.371Z,43.61
2018-07-24T05:20:14.296Z,43.51
2018-07-24T05:21:14.327Z,43.51
2018-07-24T05:23:07.281Z,43.12
2018-07-24T05:24:07.288Z,43.04
2018-07-24T05:26:00.286Z,41.80
2018-07-24T05:27:00.242Z,42.19
2018-07-24T05:28:53.189Z,42.19
2018-07-24T05:29:53.201Z,41.03
2018-07-24T05:31:46.130Z,41.03
2018-07-24T05:32:46.162Z,40.74
2018-07-24T05:34:39.116Z,40.17
2018-07-24T05:35:39.125Z,39.59
2018-07-24T05:37:32.066Z,39.69
2018-07-24T05:38:32.097Z,39.59
2018-07-24T05:40:25.056Z,39.96
2018-07-24T05:41:25.060Z,40.64
2018-07-24T05:43:18.017Z,40.35
2018-07-24T05:44:18.024Z,40.82
2018-07-24T05:46:10.953Z,40.72
2018-07-24T05:47:10.985Z,40.63
2018-07-24T05:49:04.060Z,41.97
2018-07-24T05:50:03.948Z,42.54
2018-07-24T05:51:56.883Z,42.93
2018-07-24T05:52:56.914Z,42.34
2018-07-24T05:54:50.053Z,42.16
2018-07-24T05:55:50.067Z,41.87
2018-07-24T05:57:42.997Z,41.70
2018-07-24T05:58:43.029Z,41.70
2018-07-24T06:00:35.985Z,41.99
2018-07-24T06:01:35.995Z,41.31
2018-07-24T06:03:28.930Z,42.19
2018-07-24T06:04:28.961Z,41.87
2018-07-24T06:06:21.918Z,42.26
2018-07-24T06:07:21.955Z,42.19
2018-07-24T06:09:14.860Z,42.19
2018-07-24T06:10:14.893Z,42.09
2018-07-24T06:12:07.862Z,42.38
2018-07-24T06:13:07.876Z,42.50
2018-07-24T06:15:00.828Z,42.03
2018-07-24T06:16:00.829Z,41.35
2018-07-24T06:17:53.766Z,40.00
2018-07-24T06:18:53.797Z,40.00
2018-07-24T06:20:46.758Z,40.56
2018-07-24T06:21:46.793Z,40.56
2018-07-24T06:23:39.762Z,40.78
2018-07-24T06:24:39.736Z,40.58
2018-07-24T06:26:32.699Z,39.72
2018-07-24T06:27:32.718Z,39.82
2018-07-24T06:29:25.661Z,38.68
2018-07-24T06:30:25.678Z,38.88
2018-07-24T06:32:18.639Z,38.78
2018-07-24T06:33:18.653Z,38.10
2018-07-24T06:35:11.591Z,37.92
2018-07-24T06:36:11.628Z,37.52
2018-07-24T06:38:04.586Z,37.54
2018-07-24T06:39:04.598Z,37.84
2018-07-24T06:40:57.559Z,37.52
2018-07-24T06:41:57.574Z,37.23
2018-07-24T06:43:50.512Z,37.88
2018-07-24T06:44:50.550Z,38.37
2018-07-24T06:46:43.509Z,38.57
2018-07-24T06:47:43.523Z,38.76
2018-07-24T06:49:36.462Z,37.73
2018-07-24T06:50:36.496Z,37.33
2018-07-24T06:52:29.465Z,36.27
2018-07-24T06:53:29.471Z,35.99
2018-07-24T06:55:22.584Z,36.57
2018-07-24T06:56:22.615Z,35.99
2018-07-24T06:58:15.605Z,36.47
2018-07-24T06:59:15.596Z,36.06
2018-07-24T07:01:08.539Z,37.33
2018-07-24T07:02:08.593Z,35.96
2018-07-24T07:04:01.538Z,36.45
2018-07-24T07:05:01.559Z,36.18
2018-07-24T07:06:54.514Z,35.86
2018-07-24T07:07:54.534Z,35.96
2018-07-24T07:09:47.471Z,36.25
2018-07-24T07:10:47.511Z,37.41
2018-07-24T07:12:40.471Z,36.16
2018-07-24T07:13:40.485Z,36.16
2018-07-24T07:15:33.491Z,35.88
2018-07-24T07:16:33.465Z,35.88
2018-07-24T07:18:26.429Z,35.66
2018-07-24T07:19:26.446Z,36.53
2018-07-24T07:21:19.388Z,36.53
2018-07-24T07:22:19.425Z,36.53
2018-07-24T07:24:12.387Z,35.85
2018-07-24T07:25:12.403Z,36.04
2018-07-24T07:27:05.367Z,35.94
2018-07-24T07:28:05.381Z,35.94
2018-07-24T07:29:58.319Z,35.85
2018-07-24T07:30:58.356Z,35.83
2018-07-24T07:32:51.311Z,36.59
2018-07-24T07:33:51.327Z,37.67
2018-07-24T07:35:44.266Z,36.96
2018-07-24T07:36:44.301Z,37.43
2018-07-24T07:38:37.258Z,37.04
2018-07-24T07:39:37.266Z,37.63
2018-07-24T07:41:30.202Z,38.69
2018-07-24T07:42:30.236Z,38.79
2018-07-24T07:44:23.192Z,39.67
2018-07-24T07:45:23.251Z,39.37
2018-07-24T07:47:16.130Z,39.76
2018-07-24T07:48:16.161Z,38.51
2018-07-24T07:50:09.118Z,38.42
2018-07-24T07:51:09.134Z,38.71
2018-07-24T07:53:02.101Z,38.49
2018-07-24T07:54:02.090Z,39.18
2018-07-24T07:55:55.024Z,39.57
2018-07-24T07:56:55.055Z,39.96
2018-07-24T07:58:48.014Z,38.89
2018-07-24T07:59:48.017Z,39.47
2018-07-24T08:01:40.999Z,38.90
2018-07-24T08:02:40.979Z,39.37
2018-07-24T08:04:34.962Z,39.78
2018-07-24T08:05:34.972Z,39.39
2018-07-24T08:07:27.903Z,39.78
2018-07-24T08:08:27.935Z,38.51
2018-07-24T08:10:20.893Z,38.22
2018-07-24T08:11:20.914Z,38.02
2018-07-24T08:13:13.890Z,38.43
2018-07-24T08:14:13.914Z,37.45
2018-07-24T08:16:06.809Z,37.75
2018-07-24T08:17:06.825Z,37.43
2018-07-24T08:18:59.771Z,38.12
2018-07-24T08:19:59.783Z,37.93
2018-07-24T08:21:52.710Z,37.24
2018-07-24T08:22:52.737Z,37.04
2018-07-24T08:24:45.687Z,36.36
2018-07-24T08:25:45.697Z,37.24
2018-07-24T08:27:38.627Z,37.45
2018-07-24T08:28:38.657Z,36.85
2018-07-24T08:30:31.607Z,37.43
2018-07-24T08:31:31.620Z,36.65
2018-07-24T08:33:24.556Z,36.65
2018-07-24T08:34:24.576Z,36.55
2018-07-24T08:36:17.533Z,36.94
2018-07-24T08:37:17.542Z,37.85
2018-07-24T08:39:10.474Z,36.38
2018-07-24T08:40:10.503Z,36.28
2018-07-24T08:42:03.456Z,36.79
2018-07-24T08:43:03.463Z,35.79
2018-07-24T08:44:56.625Z,35.87
2018-07-24T08:45:56.601Z,35.87
2018-07-24T08:47:49.527Z,35.89
2018-07-24T08:48:49.566Z,36.87
2018-07-24T08:50:42.526Z,36.20
2018-07-24T08:51:42.518Z,35.42
2018-07-24T08:53:35.722Z,35.42
2018-07-24T08:54:35.694Z,35.21
2018-07-24T08:56:28.428Z,35.40
2018-07-24T08:57:28.441Z,35.69
2018-07-24T08:59:21.398Z,34.64
2018-07-24T09:00:21.403Z,34.44
2018-07-24T09:02:14.363Z,34.34
2018-07-24T09:03:14.428Z,34.14
2018-07-24T09:05:07.305Z,34.93
2018-07-24T09:06:07.334Z,35.03
2018-07-24T09:08:00.357Z,34.64
2018-07-24T09:09:00.408Z,34.54
2018-07-24T09:10:53.290Z,33.36
2018-07-24T09:11:53.307Z,34.06
2018-07-24T09:13:46.270Z,34.16
2018-07-24T09:14:46.280Z,35.06
2018-07-24T09:16:39.235Z,33.38
2018-07-24T09:17:39.245Z,32.90
2018-07-24T09:19:32.243Z,33.39
2018-07-24T09:20:32.222Z,33.98
2018-07-24T09:22:25.177Z,33.10
2018-07-24T09:23:25.183Z,34.20
2018-07-24T09:25:18.118Z,32.82
2018-07-24T09:26:18.148Z,32.92
2018-07-24T09:28:11.102Z,32.82
2018-07-24T09:29:11.111Z,33.61
2018-07-24T09:31:04.040Z,32.35
2018-07-24T09:32:04.072Z,32.74
2018-07-24T09:33:57.025Z,31.86
2018-07-24T09:34:57.032Z,33.02
2018-07-24T09:36:49.988Z,32.64
2018-07-24T09:37:49.997Z,33.61
2018-07-24T09:39:42.931Z,33.23
2018-07-24T09:40:42.960Z,32.84
2018-07-24T09:42:35.915Z,32.64
2018-07-24T09:43:35.924Z,32.95
2018-07-24T09:45:28.868Z,30.99
2018-07-24T09:46:28.889Z,31.87
2018-07-24T09:48:21.857Z,33.05
2018-07-24T09:49:21.855Z,32.66
2018-07-24T09:51:14.783Z,31.77
2018-07-24T09:52:14.814Z,32.37
2018-07-24T09:54:07.767Z,32.94
2018-07-24T09:55:07.773Z,32.76
2018-07-24T09:57:01.199Z,31.87
2018-07-24T09:58:01.234Z,32.54
2018-07-24T09:59:54.189Z,31.48
2018-07-24T10:00:54.198Z,33.34
2018-07-24T10:02:47.643Z,31.87
2018-07-24T10:03:47.656Z,31.77
2018-07-24T10:05:40.584Z,32.64
2018-07-24T10:06:40.618Z,32.64
2018-07-24T10:08:33.573Z,32.66
2018-07-24T10:09:33.581Z,32.56
2018-07-24T10:11:26.521Z,31.77
2018-07-24T10:12:26.547Z,31.48
2018-07-24T10:14:19.526Z,29.91
2018-07-24T10:15:19.513Z,30.11
2018-07-24T10:17:12.462Z,31.19
2018-07-24T10:18:12.490Z,31.68
2018-07-24T10:20:05.456Z,31.19
2018-07-24T10:21:05.457Z,30.01
2018-07-24T10:22:58.421Z,31.19
2018-07-24T10:23:58.421Z,30.70
2018-07-24T10:25:51.358Z,29.03
2018-07-24T10:26:51.406Z,29.91
2018-07-24T10:28:44.400Z,29.22
2018-07-24T10:29:44.351Z,28.83
2018-07-24T10:31:37.285Z,29.02
2018-07-24T10:32:37.317Z,28.92
2018-07-24T10:34:30.276Z,29.41
2018-07-24T10:35:30.281Z,30.57
2018-07-24T10:37:23.215Z,31.16
2018-07-24T10:38:23.247Z,29.49
2018-07-24T10:40:16.205Z,30.27
2018-07-24T10:41:16.216Z,31.17
2018-07-24T10:43:09.198Z,30.39
2018-07-24T10:44:09.177Z,30.39
2018-07-24T10:46:02.133Z,29.21
2018-07-24T10:47:02.148Z,29.70
2018-07-24T10:48:55.101Z,30.39
2018-07-24T10:49:55.115Z,30.50
2018-07-24T10:51:48.055Z,30.01
2018-07-24T10:52:48.080Z,29.62
2018-07-24T10:54:41.042Z,30.01
2018-07-24T10:55:41.047Z,30.50
2018-07-24T10:57:33.979Z,30.60
2018-07-24T10:58:34.012Z,31.09
2018-07-24T11:00:27.131Z,29.53
2018-07-24T11:01:27.143Z,28.75
2018-07-24T11:03:20.076Z,28.55
2018-07-24T11:04:20.109Z,28.85
2018-07-24T11:06:13.069Z,28.16
2018-07-24T11:07:13.081Z,28.47
2018-07-24T11:09:06.039Z,29.05
2018-07-24T11:10:06.046Z,29.03
2018-07-24T11:11:58.981Z,30.21
2018-07-24T11:12:59.012Z,30.80
2018-07-24T11:14:51.969Z,29.22
2018-07-24T11:15:51.986Z,28.43
2018-07-24T11:17:44.919Z,30.01
2018-07-24T11:18:44.948Z,30.70
2018-07-24T11:20:37.905Z,29.52
2018-07-24T11:21:37.912Z,30.02
2018-07-24T11:23:30.859Z,30.02
2018-07-24T11:24:30.875Z,29.16
2018-07-24T11:26:23.836Z,29.53
2018-07-24T11:27:23.899Z,29.45
2018-07-24T11:29:16.779Z,28.47
2018-07-24T11:30:16.806Z,27.69
2018-07-24T11:32:09.764Z,26.98
2018-07-24T11:33:09.924Z,28.16
2018-07-24T11:35:02.734Z,28.95
2018-07-24T11:36:02.792Z,28.45
2018-07-24T11:37:55.676Z,28.36
2018-07-24T11:38:55.710Z,28.57
2018-07-24T11:40:48.664Z,28.58
2018-07-24T11:41:48.676Z,28.58
2018-07-24T11:43:41.614Z,28.49
2018-07-24T11:44:41.646Z,27.99
2018-07-24T11:46:34.665Z,27.60
2018-07-24T11:47:34.612Z,27.40
2018-07-24T11:49:27.546Z,26.41
2018-07-24T11:50:27.577Z,27.49
2018-07-24T11:52:20.534Z,27.18
2018-07-24T11:53:20.542Z,27.37
2018-07-24T11:55:13.474Z,29.05
2018-07-24T11:56:13.507Z,28.95
2018-07-24T11:58:06.464Z,27.77
2018-07-24T11:59:06.475Z,27.66
2018-07-24T12:00:59.430Z,27.95
2018-07-24T12:01:59.442Z,28.15
2018-07-24T12:03:52.377Z,29.22
2018-07-24T12:04:52.419Z,29.72
2018-07-24T12:06:45.361Z,29.63
2018-07-24T12:07:45.392Z,28.26
2018-07-24T12:09:38.309Z,27.97
2018-07-24T12:10:38.341Z,27.57
2018-07-24T12:12:31.298Z,27.66
2018-07-24T12:13:31.306Z,28.05
2018-07-24T12:15:24.241Z,28.54
2018-07-24T12:16:24.272Z,27.75
2018-07-24T12:18:17.228Z,28.53
2018-07-24T12:19:17.236Z,28.74
2018-07-24T12:21:10.204Z,28.05
2018-07-24T12:22:10.204Z,28.74
2018-07-24T12:24:03.148Z,27.47
2018-07-24T12:25:03.176Z,27.18
2018-07-24T12:26:56.131Z,28.36
2018-07-24T12:27:56.145Z,28.26
2018-07-24T12:29:49.075Z,28.65
2018-07-24T12:30:49.106Z,28.45
2018-07-24T12:32:42.060Z,27.87
2018-07-24T12:33:42.069Z,27.28
2018-07-24T12:35:35.063Z,27.47
2018-07-24T12:36:35.040Z,27.47
2018-07-24T12:38:27.997Z,27.57
2018-07-24T12:39:28.006Z,27.08
2018-07-24T12:41:21.115Z,26.97
2018-07-24T12:42:21.128Z,26.68
2018-07-24T12:44:14.083Z,28.15
2018-07-24T12:45:14.094Z,28.15
2018-07-24T12:47:07.052Z,27.26
2018-07-24T12:48:07.058Z,26.68
2018-07-24T12:49:59.988Z,28.26
2018-07-24T12:51:00.021Z,28.16
2018-07-24T12:52:52.977Z,27.37
2018-07-24T12:53:52.987Z,27.39
2018-07-24T12:55:45.920Z,27.29
2018-07-24T12:56:45.952Z,26.90
2018-07-24T12:58:38.915Z,27.39
2018-07-24T12:59:38.929Z,27.88
2018-07-24T13:01:31.861Z,27.29
2018-07-24T13:02:31.892Z,26.90
2018-07-24T13:04:24.848Z,26.70
2018-07-24T13:05:24.860Z,26.61
2018-07-24T13:07:17.793Z,27.39
2018-07-24T13:08:17.832Z,26.70
2018-07-24T13:10:10.843Z,27.89
2018-07-24T13:11:10.790Z,27.99
2018-07-24T13:13:03.747Z,28.09
2018-07-24T13:14:03.759Z,27.70
2018-07-24T13:15:56.691Z,27.71
2018-07-24T13:16:56.724Z,26.53
2018-07-24T13:18:49.713Z,26.63
2018-07-24T13:19:49.690Z,27.42
2018-07-24T13:21:42.626Z,27.53
2018-07-24T13:22:42.658Z,26.45
2018-07-24T13:24:35.632Z,26.65
2018-07-24T13:25:35.625Z,26.46
2018-07-24T13:27:28.562Z,26.57
2018-07-24T13:28:28.594Z,26.28
2018-07-24T13:30:21.550Z,25.09
2018-07-24T13:31:21.559Z,25.09
2018-07-24T13:33:14.529Z,24.99
2018-07-24T13:34:14.526Z,26.47
2018-07-24T13:36:07.461Z,25.48
2018-07-24T13:37:07.509Z,25.27
2018-07-24T13:39:00.449Z,25.37
2018-07-24T13:40:00.463Z,25.27
2018-07-24T13:41:53.397Z,26.05
2018-07-24T13:42:53.430Z,26.35
2018-07-24T13:44:46.398Z,25.55
2018-07-24T13:45:46.400Z,25.45
2018-07-24T13:47:39.334Z,26.63
2018-07-24T13:48:39.364Z,26.53
2018-07-24T13:50:32.323Z,26.53
2018-07-24T13:51:32.330Z,24.87
2018-07-24T13:53:25.317Z,25.05
2018-07-24T13:54:25.299Z,24.76
2018-07-24T13:56:18.237Z,26.53
2018-07-24T13:57:18.272Z,26.35
2018-07-24T13:59:11.225Z,26.15
2018-07-24T14:00:11.236Z,26.15
2018-07-24T14:02:04.177Z,25.38
2018-07-24T14:03:04.212Z,26.05
2018-07-24T14:04:57.181Z,25.37
2018-07-24T14:05:57.191Z,24.87
2018-07-24T14:07:50.125Z,25.37
2018-07-24T14:08:50.163Z,25.46
2018-07-24T14:10:43.119Z,24.87
2018-07-24T14:11:43.127Z,24.66
2018-07-24T14:13:36.084Z,24.96
2018-07-24T14:14:36.096Z,24.76
2018-07-24T14:16:29.032Z,25.65
2018-07-24T14:17:29.064Z,25.45
2018-07-24T14:19:22.021Z,24.97
2018-07-24T14:20:22.033Z,24.68
2018-07-24T14:22:14.983Z,24.77
2018-07-24T14:23:15.011Z,25.46
2018-07-24T14:25:07.969Z,24.76
2018-07-24T14:26:07.979Z,24.07
2018-07-24T14:28:00.913Z,24.57
2018-07-24T14:29:00.945Z,24.66
2018-07-24T14:30:53.900Z,26.04
2018-07-24T14:31:53.911Z,25.46
2018-07-24T14:33:46.843Z,25.57
2018-07-24T14:34:46.877Z,25.08
2018-07-24T14:36:39.834Z,24.70
2018-07-24T14:37:39.843Z,24.90
2018-07-24T14:39:32.807Z,24.41
2018-07-24T14:40:32.863Z,24.52
2018-07-24T14:42:25.775Z,25.10
2018-07-24T14:43:25.789Z,24.12
2018-07-24T14:45:18.747Z,24.04
2018-07-24T14:46:18.781Z,23.74
2018-07-24T14:48:11.694Z,23.35
2018-07-24T14:49:11.726Z,23.84
2018-07-24T14:51:04.685Z,23.35
2018-07-24T14:52:04.696Z,23.35
2018-07-24T14:53:57.632Z,23.64
2018-07-24T14:54:57.835Z,22.46
2018-07-24T14:56:50.621Z,23.44
2018-07-24T14:57:50.637Z,23.05
2018-07-24T14:59:43.577Z,22.36
2018-07-24T15:00:43.613Z,22.16
2018-07-24T15:02:36.706Z,22.85
2018-07-24T15:03:36.582Z,22.46
2018-07-24T15:05:29.551Z,22.16
2018-07-24T15:06:29.584Z,22.06
2018-07-24T15:08:22.559Z,22.46
2018-07-24T15:09:22.571Z,22.56
2018-07-24T15:11:17.034Z,22.66
2018-07-24T15:12:17.050Z,22.16
2018-07-24T15:14:10.094Z,22.25
2018-07-24T15:15:10.061Z,21.86
2018-07-24T15:17:03.030Z,22.94
2018-07-24T15:18:02.997Z,22.94
2018-07-24T15:19:56.169Z,23.24
2018-07-24T15:20:56.170Z,22.15
2018-07-24T15:22:49.129Z,22.25
2018-07-24T15:23:49.143Z,22.44
2018-07-24T15:25:42.166Z,22.55
2018-07-24T15:26:42.198Z,23.04
2018-07-24T15:28:35.243Z,23.14
2018-07-24T15:29:35.256Z,22.45
2018-07-24T15:31:31.204Z,23.33
2018-07-24T15:32:31.237Z,23.53
2018-07-24T15:34:24.325Z,23.05
2018-07-24T15:35:24.236Z,22.16
2018-07-24T15:37:17.277Z,21.77
2018-07-24T15:38:17.292Z,22.17
2018-07-24T15:40:10.315Z,21.88
2018-07-24T15:41:10.358Z,21.68
2018-07-24T15:43:03.389Z,21.28
2018-07-24T15:44:03.404Z,21.08
2018-07-24T15:45:56.938Z,21.26
2018-07-24T15:46:57.055Z,21.26
2018-07-24T15:48:50.220Z,21.76
2018-07-24T15:49:50.235Z,21.76
2018-07-24T15:51:43.290Z,21.66
2018-07-24T15:52:43.290Z,21.17
2018-07-24T15:54:36.311Z,21.86
2018-07-24T15:55:36.347Z,21.77
2018-07-24T15:57:29.389Z,21.57
2018-07-24T15:58:29.404Z,22.16
2018-07-24T16:00:22.423Z,22.66
2018-07-24T16:01:22.472Z,22.26
2018-07-24T16:03:15.500Z,23.06
2018-07-24T16:04:15.515Z,22.37
2018-07-24T16:06:09.123Z,21.88
2018-07-24T16:07:09.084Z,21.77
2018-07-24T16:09:02.126Z,22.35
2018-07-24T16:10:02.141Z,22.55
2018-07-24T16:11:55.165Z,23.73
2018-07-24T16:12:55.200Z,23.54
2018-07-24T16:14:48.237Z,22.46
2018-07-24T16:15:48.347Z,22.27
2018-07-24T16:17:42.216Z,22.47
2018-07-24T16:18:42.233Z,22.08
2018-07-24T16:20:35.253Z,21.88
2018-07-24T16:21:35.289Z,21.68
2018-07-24T16:23:28.335Z,22.08
2018-07-24T16:24:28.347Z,21.98
2018-07-24T16:26:21.365Z,21.39
2018-07-24T16:27:21.401Z,21.78
2018-07-24T16:29:14.955Z,21.28
2018-07-24T16:30:14.969Z,21.78
2018-07-24T16:32:08.502Z,21.77
2018-07-24T16:33:08.539Z,21.28
2018-07-24T16:35:01.581Z,22.08
2018-07-24T16:36:01.594Z,22.17
2018-07-24T16:37:54.640Z,21.78
2018-07-24T16:38:54.653Z,21.78
2018-07-24T16:40:47.676Z,21.78
2018-07-24T16:41:47.704Z,21.09
2018-07-24T16:43:40.750Z,21.37
2018-07-24T16:44:40.762Z,21.77
2018-07-24T16:46:33.786Z,22.06
2018-07-24T16:47:33.821Z,22.27
2018-07-24T16:49:26.859Z,21.87
2018-07-24T16:50:26.955Z,21.78
2018-07-24T16:52:19.898Z,21.48
2018-07-24T16:53:19.933Z,22.08
2018-07-24T16:55:12.994Z,21.98
2018-07-24T16:56:13.102Z,22.08
2018-07-24T16:58:06.010Z,22.08
2018-07-24T16:59:06.043Z,22.17
2018-07-24T17:00:59.085Z,21.68
2018-07-24T17:01:59.101Z,21.78
2018-07-24T17:03:52.140Z,21.78
2018-07-24T17:04:52.155Z,21.48
2018-07-24T17:06:45.175Z,21.97
2018-07-24T17:07:45.211Z,21.68
2018-07-24T17:09:38.258Z,21.87
2018-07-24T17:10:38.270Z,22.16
2018-07-24T17:12:31.291Z,21.88
2018-07-24T17:13:31.343Z,21.88
2018-07-24T17:15:34.291Z,21.09
2018-07-24T17:16:34.301Z,21.39
2018-07-24T17:18:27.235Z,21.39
2018-07-24T17:19:27.268Z,21.29
2018-07-24T17:21:20.225Z,21.58
2018-07-24T17:22:20.267Z,21.68
2018-07-24T17:24:13.199Z,21.08
2018-07-24T17:25:13.206Z,21.18
2018-07-24T17:27:06.147Z,21.77
2018-07-24T17:28:06.180Z,21.18
2018-07-24T17:29:59.139Z,22.06
2018-07-24T17:30:59.154Z,21.97
2018-07-24T17:32:52.284Z,21.87
2018-07-24T17:33:52.319Z,21.76
2018-07-24T17:35:45.333Z,21.95
2018-07-24T17:36:45.285Z,21.95
2018-07-24T17:38:38.221Z,21.86
2018-07-24T17:39:38.249Z,21.76
2018-07-24T17:41:31.214Z,21.86
2018-07-24T17:42:31.227Z,21.26
2018-07-24T17:44:24.160Z,21.56
2018-07-24T17:45:24.192Z,21.17
2018-07-24T17:47:17.184Z,22.25
2018-07-24T17:48:17.228Z,23.13
2018-07-24T17:50:10.120Z,23.91
2018-07-24T17:51:10.130Z,24.01
2018-07-24T17:53:03.126Z,25.20
2018-07-24T17:54:03.102Z,24.98
2018-07-24T17:55:56.055Z,25.09
2018-07-24T17:56:56.068Z,25.48
2018-07-24T17:58:49.001Z,25.38
2018-07-24T17:59:49.077Z,25.48
2018-07-24T18:01:42.015Z,25.57
2018-07-24T18:02:42.008Z,25.78
2018-07-24T18:04:34.944Z,24.90
2018-07-24T18:05:34.974Z,25.29
2018-07-24T18:07:28.015Z,25.10
2018-07-24T18:08:27.945Z,24.91
2018-07-24T18:10:20.921Z,24.81
2018-07-24T18:11:20.917Z,24.33
2018-07-24T18:13:14.030Z,24.53
2018-07-24T18:14:14.060Z,24.63
2018-07-24T18:16:07.578Z,24.63
2018-07-24T18:17:07.530Z,24.92
2018-07-24T18:19:00.464Z,25.12
2018-07-24T18:20:00.495Z,25.52
2018-07-24T18:21:53.454Z,25.03
2018-07-24T18:22:53.465Z,24.64
2018-07-24T18:24:46.400Z,25.03
2018-07-24T18:25:46.437Z,25.04
2018-07-24T18:27:39.412Z,24.37
2018-07-24T18:28:39.403Z,24.46
2018-07-24T18:30:32.381Z,24.17
2018-07-24T18:31:32.378Z,23.97
2018-07-24T18:33:25.420Z,24.08